sensor_id;sensor_type;location;lat;lon;timestamp;P1;durP1;ratioP1;P2;durP2;ratioP2
22378;SDS011;11357;49.990;7.370;2023-04-12T00:01:27;37.93;;;35.40;;
22378;SDS011;11357;49.990;7.370;2023-04-12T00:03:53;23.57;;;22.00;;
22378;SDS011;11357;49.990;7.370;2023-04-12T00:06:19;32.93;;;30.63;;
22378;SDS011;11357;49.990;7.370;2023-04-12T00:08:56;15.37;;;13.53;;
22378;SDS011;11357;49.990;7.370;2023-04-12T00:11:25;17.33;;;14.90;;
22378;SDS011;11357;49.990;7.370;2023-04-12T00:13:52;10.27;;;8.63;;
22378;SDS011;11357;49.990;7.370;2023-04-12T00:16:18;22.57;;;20.50;;
22378;SDS011;11357;49.990;7.370;2023-04-12T00:18:44;30.50;;;28.40;;
22378;SDS011;11357;49.990;7.370;2023-04-12T00:21:10;66.80;;;62.33;;
22378;SDS011;11357;49.990;7.370;2023-04-12T00:23:36;51.20;;;48.03;;
22378;SDS011;11357;49.990;7.370;2023-04-12T00:26:04;31.23;;;28.97;;
22378;SDS011;11357;49.990;7.370;2023-04-12T00:28:30;25.13;;;23.27;;
22378;SDS011;11357;49.990;7.370;2023-04-12T00:30:56;27.90;;;26.03;;
22378;SDS011;11357;49.990;7.370;2023-04-12T00:33:22;50.33;;;47.10;;
22378;SDS011;11357;49.990;7.370;2023-04-12T00:35:47;55.13;;;51.73;;
22378;SDS011;11357;49.990;7.370;2023-04-12T00:38:13;52.97;;;49.60;;
22378;SDS011;11357;49.990;7.370;2023-04-12T00:40:40;50.87;;;47.43;;
22378;SDS011;11357;49.990;7.370;2023-04-12T00:43:06;28.50;;;26.63;;
22378;SDS011;11357;49.990;7.370;2023-04-12T00:45:34;28.00;;;26.07;;
22378;SDS011;11357;49.990;7.370;2023-04-12T00:48:01;39.63;;;36.37;;
22378;SDS011;11357;49.990;7.370;2023-04-12T00:50:29;37.47;;;34.83;;
22378;SDS011;11357;49.990;7.370;2023-04-12T00:52:54;65.23;;;60.97;;
22378;SDS011;11357;49.990;7.370;2023-04-12T00:55:22;86.47;;;80.70;;
22378;SDS011;11357;49.990;7.370;2023-04-12T00:57:48;117.23;;;110.03;;
22378;SDS011;11357;49.990;7.370;2023-04-12T01:00:15;82.80;;;77.33;;
22378;SDS011;11357;49.990;7.370;2023-04-12T01:02:42;99.70;;;93.83;;
22378;SDS011;11357;49.990;7.370;2023-04-12T01:05:12;61.60;;;57.80;;
22378;SDS011;11357;49.990;7.370;2023-04-12T01:10:48;90.20;;;84.93;;
22378;SDS011;11357;49.990;7.370;2023-04-12T01:13:35;103.00;;;96.10;;
22378;SDS011;11357;49.990;7.370;2023-04-12T01:19:01;92.03;;;85.93;;
22378;SDS011;11357;49.990;7.370;2023-04-12T01:24:42;10.23;;;6.53;;
22378;SDS011;11357;49.990;7.370;2023-04-12T01:27:55;33.57;;;31.33;;
22378;SDS011;11357;49.990;7.370;2023-04-12T01:30:24;34.07;;;31.50;;
22378;SDS011;11357;49.990;7.370;2023-04-12T01:32:52;68.57;;;64.00;;
22378;SDS011;11357;49.990;7.370;2023-04-12T01:35:20;97.13;;;91.30;;
22378;SDS011;11357;49.990;7.370;2023-04-12T01:37:50;69.97;;;65.50;;
22378;SDS011;11357;49.990;7.370;2023-04-12T01:40:17;68.57;;;64.10;;
22378;SDS011;11357;49.990;7.370;2023-04-12T01:42:43;50.23;;;46.77;;
22378;SDS011;11357;49.990;7.370;2023-04-12T01:45:09;190.60;;;177.40;;
22378;SDS011;11357;49.990;7.370;2023-04-12T01:47:35;181.33;;;168.90;;
22378;SDS011;11357;49.990;7.370;2023-04-12T01:50:43;195.03;;;181.57;;
22378;SDS011;11357;49.990;7.370;2023-04-12T01:52:58;130.27;;;121.97;;
22378;SDS011;11357;49.990;7.370;2023-04-12T01:55:28;85.10;;;79.93;;
22378;SDS011;11357;49.990;7.370;2023-04-12T01:57:55;107.13;;;100.70;;
22378;SDS011;11357;49.990;7.370;2023-04-12T02:00:22;127.90;;;119.70;;
22378;SDS011;11357;49.990;7.370;2023-04-12T02:02:49;89.80;;;84.30;;
22378;SDS011;11357;49.990;7.370;2023-04-12T02:05:14;98.37;;;91.43;;
22378;SDS011;11357;49.990;7.370;2023-04-12T02:07:41;93.33;;;87.33;;
22378;SDS011;11357;49.990;7.370;2023-04-12T02:10:07;106.07;;;99.53;;
22378;SDS011;11357;49.990;7.370;2023-04-12T02:12:38;123.00;;;115.07;;
22378;SDS011;11357;49.990;7.370;2023-04-12T02:15:04;222.67;;;207.57;;
22378;SDS011;11357;49.990;7.370;2023-04-12T02:17:32;164.50;;;154.00;;
22378;SDS011;11357;49.990;7.370;2023-04-12T02:19:58;152.50;;;142.53;;
22378;SDS011;11357;49.990;7.370;2023-04-12T02:22:23;77.83;;;72.83;;
22378;SDS011;11357;49.990;7.370;2023-04-12T02:24:49;145.30;;;136.23;;
22378;SDS011;11357;49.990;7.370;2023-04-12T02:27:16;155.37;;;145.87;;
22378;SDS011;11357;49.990;7.370;2023-04-12T02:29:42;130.37;;;122.27;;
22378;SDS011;11357;49.990;7.370;2023-04-12T02:32:09;61.47;;;57.40;;
22378;SDS011;11357;49.990;7.370;2023-04-12T02:34:35;123.00;;;115.20;;
22378;SDS011;11357;49.990;7.370;2023-04-12T02:37:02;191.77;;;179.23;;
22378;SDS011;11357;49.990;7.370;2023-04-12T02:39:28;83.60;;;78.37;;
22378;SDS011;11357;49.990;7.370;2023-04-12T02:41:56;83.23;;;77.03;;
22378;SDS011;11357;49.990;7.370;2023-04-12T02:44:21;37.77;;;35.17;;
22378;SDS011;11357;49.990;7.370;2023-04-12T02:46:47;142.73;;;133.00;;
22378;SDS011;11357;49.990;7.370;2023-04-12T02:49:13;53.93;;;50.23;;
22378;SDS011;11357;49.990;7.370;2023-04-12T02:51:38;181.70;;;169.63;;
22378;SDS011;11357;49.990;7.370;2023-04-12T02:54:04;118.57;;;111.50;;
22378;SDS011;11357;49.990;7.370;2023-04-12T02:56:30;150.83;;;141.67;;
22378;SDS011;11357;49.990;7.370;2023-04-12T02:58:58;128.53;;;120.57;;
22378;SDS011;11357;49.990;7.370;2023-04-12T03:01:24;162.87;;;152.50;;
22378;SDS011;11357;49.990;7.370;2023-04-12T03:03:50;121.13;;;113.47;;
22378;SDS011;11357;49.990;7.370;2023-04-12T03:06:16;66.33;;;62.37;;
22378;SDS011;11357;49.990;7.370;2023-04-12T03:08:41;182.50;;;171.07;;
22378;SDS011;11357;49.990;7.370;2023-04-12T03:11:07;169.00;;;158.67;;
22378;SDS011;11357;49.990;7.370;2023-04-12T03:13:33;99.70;;;94.13;;
22378;SDS011;11357;49.990;7.370;2023-04-12T03:15:58;136.93;;;128.30;;
22378;SDS011;11357;49.990;7.370;2023-04-12T03:18:24;121.93;;;114.23;;
22378;SDS011;11357;49.990;7.370;2023-04-12T03:20:50;103.97;;;97.20;;
22378;SDS011;11357;49.990;7.370;2023-04-12T03:23:19;82.13;;;77.60;;
22378;SDS011;11357;49.990;7.370;2023-04-12T03:25:44;55.83;;;52.47;;
22378;SDS011;11357;49.990;7.370;2023-04-12T03:28:10;22.20;;;20.93;;
22378;SDS011;11357;49.990;7.370;2023-04-12T03:30:36;93.83;;;88.47;;
22378;SDS011;11357;49.990;7.370;2023-04-12T03:33:01;15.87;;;14.77;;
22378;SDS011;11357;49.990;7.370;2023-04-12T03:35:27;81.90;;;77.37;;
22378;SDS011;11357;49.990;7.370;2023-04-12T03:37:53;66.93;;;62.83;;
22378;SDS011;11357;49.990;7.370;2023-04-12T03:40:18;39.00;;;36.67;;
22378;SDS011;11357;49.990;7.370;2023-04-12T03:42:44;25.00;;;23.37;;
22378;SDS011;11357;49.990;7.370;2023-04-12T03:45:10;56.50;;;53.10;;
22378;SDS011;11357;49.990;7.370;2023-04-12T03:47:36;123.50;;;116.20;;
22378;SDS011;11357;49.990;7.370;2023-04-12T03:50:02;139.57;;;131.20;;
22378;SDS011;11357;49.990;7.370;2023-04-12T03:52:32;84.57;;;79.80;;
22378;SDS011;11357;49.990;7.370;2023-04-12T03:54:58;94.73;;;89.20;;
22378;SDS011;11357;49.990;7.370;2023-04-12T03:57:24;127.03;;;119.53;;
22378;SDS011;11357;49.990;7.370;2023-04-12T03:59:50;122.83;;;115.70;;
22378;SDS011;11357;49.990;7.370;2023-04-12T04:02:16;70.57;;;66.57;;
22378;SDS011;11357;49.990;7.370;2023-04-12T04:04:41;51.30;;;48.07;;
22378;SDS011;11357;49.990;7.370;2023-04-12T04:07:07;72.57;;;68.43;;
22378;SDS011;11357;49.990;7.370;2023-04-12T04:09:33;18.30;;;16.87;;
22378;SDS011;11357;49.990;7.370;2023-04-12T04:11:59;68.10;;;63.67;;
22378;SDS011;11357;49.990;7.370;2023-04-12T04:14:25;88.33;;;83.07;;
22378;SDS011;11357;49.990;7.370;2023-04-12T04:16:51;145.50;;;136.23;;
22378;SDS011;11357;49.990;7.370;2023-04-12T04:19:18;177.23;;;165.83;;
22378;SDS011;11357;49.990;7.370;2023-04-12T04:21:43;18.67;;;17.13;;
22378;SDS011;11357;49.990;7.370;2023-04-12T04:24:09;18.00;;;16.87;;
22378;SDS011;11357;49.990;7.370;2023-04-12T04:26:35;89.27;;;83.87;;
22378;SDS011;11357;49.990;7.370;2023-04-12T04:29:02;135.50;;;126.87;;
22378;SDS011;11357;49.990;7.370;2023-04-12T04:31:29;96.40;;;90.73;;
22378;SDS011;11357;49.990;7.370;2023-04-12T04:34:01;171.13;;;160.03;;
22378;SDS011;11357;49.990;7.370;2023-04-12T04:36:29;59.20;;;55.77;;
22378;SDS011;11357;49.990;7.370;2023-04-12T04:38:59;68.37;;;64.13;;
22378;SDS011;11357;49.990;7.370;2023-04-12T04:41:26;16.93;;;15.87;;
22378;SDS011;11357;49.990;7.370;2023-04-12T04:43:51;189.53;;;177.17;;
22378;SDS011;11357;49.990;7.370;2023-04-12T04:46:20;204.27;;;190.80;;
22378;SDS011;11357;49.990;7.370;2023-04-12T04:48:48;216.63;;;202.33;;
22378;SDS011;11357;49.990;7.370;2023-04-12T04:51:15;267.23;;;249.53;;
22378;SDS011;11357;49.990;7.370;2023-04-12T04:53:41;23.97;;;22.57;;
22378;SDS011;11357;49.990;7.370;2023-04-12T04:56:08;139.50;;;130.97;;
22378;SDS011;11357;49.990;7.370;2023-04-12T04:58:34;128.87;;;120.97;;
22378;SDS011;11357;49.990;7.370;2023-04-12T05:01:00;185.23;;;172.67;;
22378;SDS011;11357;49.990;7.370;2023-04-12T05:03:26;220.33;;;205.50;;
22378;SDS011;11357;49.990;7.370;2023-04-12T05:05:52;192.07;;;180.37;;
22378;SDS011;11357;49.990;7.370;2023-04-12T05:08:20;163.20;;;153.47;;
22378;SDS011;11357;49.990;7.370;2023-04-12T05:10:49;164.07;;;153.90;;
22378;SDS011;11357;49.990;7.370;2023-04-12T05:13:16;204.17;;;190.57;;
22378;SDS011;11357;49.990;7.370;2023-04-12T05:15:42;235.87;;;220.23;;
22378;SDS011;11357;49.990;7.370;2023-04-12T05:18:08;262.63;;;245.30;;
22378;SDS011;11357;49.990;7.370;2023-04-12T05:20:36;267.07;;;248.80;;
22378;SDS011;11357;49.990;7.370;2023-04-12T05:23:02;120.90;;;113.10;;
22378;SDS011;11357;49.990;7.370;2023-04-12T05:25:28;182.47;;;170.23;;
22378;SDS011;11357;49.990;7.370;2023-04-12T05:27:53;147.07;;;138.27;;
22378;SDS011;11357;49.990;7.370;2023-04-12T05:30:19;130.10;;;122.53;;
22378;SDS011;11357;49.990;7.370;2023-04-12T05:32:45;21.70;;;20.33;;
22378;SDS011;11357;49.990;7.370;2023-04-12T05:35:11;183.57;;;171.60;;
22378;SDS011;11357;49.990;7.370;2023-04-12T05:37:36;134.23;;;126.23;;
22378;SDS011;11357;49.990;7.370;2023-04-12T05:40:02;156.57;;;146.37;;
22378;SDS011;11357;49.990;7.370;2023-04-12T05:42:31;229.17;;;213.63;;
22378;SDS011;11357;49.990;7.370;2023-04-12T05:44:56;161.50;;;152.00;;
22378;SDS011;11357;49.990;7.370;2023-04-12T05:47:22;137.17;;;127.73;;
22378;SDS011;11357;49.990;7.370;2023-04-12T05:49:48;133.63;;;125.90;;
22378;SDS011;11357;49.990;7.370;2023-04-12T05:52:13;189.23;;;177.40;;
22378;SDS011;11357;49.990;7.370;2023-04-12T05:54:39;133.10;;;124.60;;
22378;SDS011;11357;49.990;7.370;2023-04-12T05:57:05;230.10;;;214.40;;
22378;SDS011;11357;49.990;7.370;2023-04-12T05:59:31;197.90;;;184.33;;
22378;SDS011;11357;49.990;7.370;2023-04-12T06:01:57;92.77;;;87.23;;
22378;SDS011;11357;49.990;7.370;2023-04-12T06:04:23;213.87;;;199.70;;
22378;SDS011;11357;49.990;7.370;2023-04-12T06:06:50;211.43;;;197.03;;
22378;SDS011;11357;49.990;7.370;2023-04-12T06:09:15;173.00;;;162.17;;
22378;SDS011;11357;49.990;7.370;2023-04-12T06:11:41;123.83;;;115.90;;
22378;SDS011;11357;49.990;7.370;2023-04-12T06:14:07;142.87;;;133.93;;
22378;SDS011;11357;49.990;7.370;2023-04-12T06:16:32;239.90;;;223.53;;
22378;SDS011;11357;49.990;7.370;2023-04-12T06:18:58;283.60;;;263.90;;
22378;SDS011;11357;49.990;7.370;2023-04-12T06:21:24;198.57;;;185.67;;
22378;SDS011;11357;49.990;7.370;2023-04-12T06:23:49;282.20;;;262.63;;
22378;SDS011;11357;49.990;7.370;2023-04-12T06:26:15;269.13;;;250.33;;
22378;SDS011;11357;49.990;7.370;2023-04-12T06:28:41;232.50;;;216.63;;
22378;SDS011;11357;49.990;7.370;2023-04-12T06:31:06;37.90;;;35.90;;
22378;SDS011;11357;49.990;7.370;2023-04-12T06:33:32;175.90;;;164.07;;
22378;SDS011;11357;49.990;7.370;2023-04-12T06:35:58;221.33;;;206.17;;
22378;SDS011;11357;49.990;7.370;2023-04-12T06:38:24;317.90;;;294.60;;
22378;SDS011;11357;49.990;7.370;2023-04-12T06:40:50;283.40;;;263.17;;
22378;SDS011;11357;49.990;7.370;2023-04-12T06:43:16;311.07;;;288.13;;
22378;SDS011;11357;49.990;7.370;2023-04-12T06:45:46;274.10;;;254.67;;
22378;SDS011;11357;49.990;7.370;2023-04-12T06:48:13;168.17;;;156.80;;
22378;SDS011;11357;49.990;7.370;2023-04-12T06:50:39;234.17;;;217.27;;
22378;SDS011;11357;49.990;7.370;2023-04-12T06:53:05;232.20;;;216.67;;
22378;SDS011;11357;49.990;7.370;2023-04-12T06:55:31;201.97;;;187.43;;
22378;SDS011;11357;49.990;7.370;2023-04-12T06:57:57;309.87;;;287.77;;
22378;SDS011;11357;49.990;7.370;2023-04-12T07:00:22;446.70;;;411.57;;
22378;SDS011;11357;49.990;7.370;2023-04-12T07:02:48;269.93;;;250.37;;
22378;SDS011;11357;49.990;7.370;2023-04-12T07:05:14;352.10;;;325.13;;
22378;SDS011;11357;49.990;7.370;2023-04-12T07:07:40;339.57;;;314.27;;
22378;SDS011;11357;49.990;7.370;2023-04-12T07:10:06;28.80;;;27.00;;
22378;SDS011;11357;49.990;7.370;2023-04-12T07:12:32;128.23;;;120.37;;
22378;SDS011;11357;49.990;7.370;2023-04-12T07:14:58;151.63;;;141.43;;
22378;SDS011;11357;49.990;7.370;2023-04-12T07:17:23;217.60;;;202.83;;
22378;SDS011;11357;49.990;7.370;2023-04-12T07:19:51;383.37;;;352.80;;
22378;SDS011;11357;49.990;7.370;2023-04-12T07:22:20;91.17;;;84.73;;
22378;SDS011;11357;49.990;7.370;2023-04-12T07:24:47;425.07;;;390.10;;
22378;SDS011;11357;49.990;7.370;2023-04-12T07:27:13;301.03;;;278.50;;
22378;SDS011;11357;49.990;7.370;2023-04-12T07:29:39;150.17;;;139.77;;
22378;SDS011;11357;49.990;7.370;2023-04-12T07:32:05;145.23;;;135.77;;
22378;SDS011;11357;49.990;7.370;2023-04-12T07:34:32;25.50;;;23.87;;
22378;SDS011;11357;49.990;7.370;2023-04-12T07:36:57;127.80;;;118.20;;
22378;SDS011;11357;49.990;7.370;2023-04-12T07:39:25;214.53;;;199.03;;
22378;SDS011;11357;49.990;7.370;2023-04-12T07:41:51;273.13;;;252.37;;
22378;SDS011;11357;49.990;7.370;2023-04-12T07:44:16;119.37;;;111.63;;
22378;SDS011;11357;49.990;7.370;2023-04-12T07:46:42;244.27;;;227.37;;
22378;SDS011;11357;49.990;7.370;2023-04-12T07:49:08;370.83;;;342.60;;
22378;SDS011;11357;49.990;7.370;2023-04-12T07:51:34;418.87;;;385.63;;
22378;SDS011;11357;49.990;7.370;2023-04-12T07:54:00;202.83;;;187.53;;
22378;SDS011;11357;49.990;7.370;2023-04-12T07:56:26;114.07;;;106.60;;
22378;SDS011;11357;49.990;7.370;2023-04-12T07:58:52;412.40;;;377.87;;
22378;SDS011;11357;49.990;7.370;2023-04-12T08:01:18;384.23;;;353.03;;
22378;SDS011;11357;49.990;7.370;2023-04-12T08:03:43;309.70;;;286.23;;
22378;SDS011;11357;49.990;7.370;2023-04-12T08:06:09;262.47;;;244.60;;
22378;SDS011;11357;49.990;7.370;2023-04-12T08:08:34;423.50;;;386.90;;
22378;SDS011;11357;49.990;7.370;2023-04-12T08:11:00;395.27;;;361.80;;
22378;SDS011;11357;49.990;7.370;2023-04-12T08:13:31;430.23;;;394.10;;
22378;SDS011;11357;49.990;7.370;2023-04-12T08:15:57;353.27;;;322.90;;
22378;SDS011;11357;49.990;7.370;2023-04-12T08:18:22;432.93;;;397.57;;
22378;SDS011;11357;49.990;7.370;2023-04-12T08:20:48;436.10;;;400.37;;
22378;SDS011;11357;49.990;7.370;2023-04-12T08:23:14;337.83;;;307.97;;
22378;SDS011;11357;49.990;7.370;2023-04-12T08:25:40;416.57;;;380.00;;
22378;SDS011;11357;49.990;7.370;2023-04-12T08:28:06;637.27;;;575.57;;
22378;SDS011;11357;49.990;7.370;2023-04-12T08:30:32;584.87;;;518.73;;
22378;SDS011;11357;49.990;7.370;2023-04-12T08:32:58;519.40;;;476.47;;
22378;SDS011;11357;49.990;7.370;2023-04-12T08:35:24;510.80;;;463.00;;
22378;SDS011;11357;49.990;7.370;2023-04-12T08:37:50;231.27;;;214.40;;
22378;SDS011;11357;49.990;7.370;2023-04-12T08:40:16;614.17;;;551.77;;
22378;SDS011;11357;49.990;7.370;2023-04-12T08:42:42;337.10;;;311.30;;
22378;SDS011;11357;49.990;7.370;2023-04-12T08:45:08;436.30;;;399.63;;
22378;SDS011;11357;49.990;7.370;2023-04-12T08:47:36;532.13;;;481.90;;
22378;SDS011;11357;49.990;7.370;2023-04-12T08:50:04;338.30;;;310.90;;
22378;SDS011;11357;49.990;7.370;2023-04-12T08:52:34;555.37;;;502.20;;
22378;SDS011;11357;49.990;7.370;2023-04-12T08:55:04;562.80;;;509.70;;
22378;SDS011;11357;49.990;7.370;2023-04-12T08:57:31;443.33;;;405.33;;
22378;SDS011;11357;49.990;7.370;2023-04-12T08:59:59;520.77;;;469.33;;
22378;SDS011;11357;49.990;7.370;2023-04-12T09:02:26;551.13;;;495.13;;
22378;SDS011;11357;49.990;7.370;2023-04-12T09:04:52;847.90;;;602.67;;
22378;SDS011;11357;49.990;7.370;2023-04-12T09:07:18;599.30;;;530.13;;
22378;SDS011;11357;49.990;7.370;2023-04-12T09:09:47;464.77;;;422.03;;
22378;SDS011;11357;49.990;7.370;2023-04-12T09:12:14;411.17;;;376.50;;
22378;SDS011;11357;49.990;7.370;2023-04-12T09:14:40;450.57;;;403.30;;
22378;SDS011;11357;49.990;7.370;2023-04-12T09:20:26;314.60;;;287.87;;
22378;SDS011;11357;49.990;7.370;2023-04-12T09:22:51;511.23;;;456.50;;
22378;SDS011;11357;49.990;7.370;2023-04-12T09:25:19;444.50;;;400.57;;
22378;SDS011;11357;49.990;7.370;2023-04-12T09:28:04;389.83;;;351.23;;
22378;SDS011;11357;49.990;7.370;2023-04-12T09:30:45;383.13;;;352.20;;
22378;SDS011;11357;49.990;7.370;2023-04-12T09:33:15;550.23;;;496.17;;
22378;SDS011;11357;49.990;7.370;2023-04-12T09:35:42;782.40;;;619.43;;
22378;SDS011;11357;49.990;7.370;2023-04-12T09:38:08;1054.20;;;655.37;;
22378;SDS011;11357;49.990;7.370;2023-04-12T09:40:34;591.87;;;534.17;;
22378;SDS011;11357;49.990;7.370;2023-04-12T09:43:00;521.93;;;410.57;;
22378;SDS011;11357;49.990;7.370;2023-04-12T09:45:27;731.17;;;583.13;;
22378;SDS011;11357;49.990;7.370;2023-04-12T09:47:56;708.63;;;532.87;;
22378;SDS011;11357;49.990;7.370;2023-04-12T09:50:25;683.83;;;565.30;;
22378;SDS011;11357;49.990;7.370;2023-04-12T09:52:55;685.17;;;607.17;;
22378;SDS011;11357;49.990;7.370;2023-04-12T09:55:23;645.77;;;529.43;;
22378;SDS011;11357;49.990;7.370;2023-04-12T09:57:51;1003.73;;;687.43;;
22378;SDS011;11357;49.990;7.370;2023-04-12T10:00:18;807.47;;;649.80;;
22378;SDS011;11357;49.990;7.370;2023-04-12T10:02:47;830.67;;;612.10;;
22378;SDS011;11357;49.990;7.370;2023-04-12T10:05:15;392.03;;;351.83;;
22378;SDS011;11357;49.990;7.370;2023-04-12T10:07:42;1028.13;;;736.20;;
22378;SDS011;11357;49.990;7.370;2023-04-12T10:10:09;927.40;;;649.83;;
22378;SDS011;11357;49.990;7.370;2023-04-12T10:12:37;780.80;;;620.53;;
22378;SDS011;11357;49.990;7.370;2023-04-12T10:15:07;1504.13;;;797.07;;
22378;SDS011;11357;49.990;7.370;2023-04-12T10:17:55;1839.83;;;840.30;;
22378;SDS011;11357;49.990;7.370;2023-04-12T10:20:21;1213.90;;;723.23;;
22378;SDS011;11357;49.990;7.370;2023-04-12T10:22:51;554.67;;;502.17;;
22378;SDS011;11357;49.990;7.370;2023-04-12T10:25:18;1542.87;;;781.90;;
22378;SDS011;11357;49.990;7.370;2023-04-12T10:27:45;1172.23;;;527.87;;
22378;SDS011;11357;49.990;7.370;2023-04-12T10:30:27;810.17;;;555.00;;
22378;SDS011;11357;49.990;7.370;2023-04-12T10:35:29;635.07;;;498.13;;
22378;SDS011;11357;49.990;7.370;2023-04-12T10:38:13;1165.07;;;705.93;;
22378;SDS011;11357;49.990;7.370;2023-04-12T10:41:05;520.43;;;472.63;;
22378;SDS011;11357;49.990;7.370;2023-04-12T10:43:40;730.43;;;577.47;;
22378;SDS011;11357;49.990;7.370;2023-04-12T10:46:07;1135.73;;;670.63;;
22378;SDS011;11357;49.990;7.370;2023-04-12T10:48:53;996.93;;;682.33;;
22378;SDS011;11357;49.990;7.370;2023-04-12T10:51:22;450.20;;;394.27;;
22378;SDS011;11357;49.990;7.370;2023-04-12T10:56:40;932.27;;;538.77;;
22378;SDS011;11357;49.990;7.370;2023-04-12T10:59:10;884.53;;;586.47;;
22378;SDS011;11357;49.990;7.370;2023-04-12T11:01:37;1544.87;;;800.57;;
22378;SDS011;11357;49.990;7.370;2023-04-12T11:04:10;1800.77;;;827.33;;
22378;SDS011;11357;49.990;7.370;2023-04-12T11:19:45;1719.23;;;774.37;;
22378;SDS011;11357;49.990;7.370;2023-04-12T11:22:14;1102.07;;;729.00;;
22378;SDS011;11357;49.990;7.370;2023-04-12T11:24:51;1999.90;;;830.23;;
22378;SDS011;11357;49.990;7.370;2023-04-12T11:27:19;1048.60;;;586.10;;
22378;SDS011;11357;49.990;7.370;2023-04-12T11:29:47;1120.80;;;729.37;;
22378;SDS011;11357;49.990;7.370;2023-04-12T11:32:14;734.73;;;481.77;;
22378;SDS011;11357;49.990;7.370;2023-04-12T11:34:42;442.57;;;394.80;;
22378;SDS011;11357;49.990;7.370;2023-04-12T11:37:08;1298.33;;;635.30;;
22378;SDS011;11357;49.990;7.370;2023-04-12T11:39:35;505.97;;;459.53;;
22378;SDS011;11357;49.990;7.370;2023-04-12T11:42:05;670.77;;;596.77;;
22378;SDS011;11357;49.990;7.370;2023-04-12T11:44:34;789.53;;;608.80;;
22378;SDS011;11357;49.990;7.370;2023-04-12T11:47:01;1394.73;;;755.77;;
22378;SDS011;11357;49.990;7.370;2023-04-12T11:49:27;973.57;;;654.60;;
22378;SDS011;11357;49.990;7.370;2023-04-12T11:52:02;1342.90;;;709.17;;
22378;SDS011;11357;49.990;7.370;2023-04-12T11:54:29;602.17;;;545.40;;
22378;SDS011;11357;49.990;7.370;2023-04-12T11:56:56;1618.03;;;837.60;;
22378;SDS011;11357;49.990;7.370;2023-04-12T11:59:29;951.27;;;623.33;;
22378;SDS011;11357;49.990;7.370;2023-04-12T12:01:57;1942.80;;;852.13;;
22378;SDS011;11357;49.990;7.370;2023-04-12T12:04:24;1943.30;;;889.70;;
22378;SDS011;11357;49.990;7.370;2023-04-12T12:06:49;899.23;;;691.87;;
22378;SDS011;11357;49.990;7.370;2023-04-12T12:09:16;1102.47;;;619.27;;
22378;SDS011;11357;49.990;7.370;2023-04-12T12:11:41;639.63;;;573.90;;
22378;SDS011;11357;49.990;7.370;2023-04-12T12:14:07;526.67;;;474.10;;
22378;SDS011;11357;49.990;7.370;2023-04-12T12:16:33;1317.37;;;718.03;;
22378;SDS011;11357;49.990;7.370;2023-04-12T12:19:02;587.47;;;530.83;;
22378;SDS011;11357;49.990;7.370;2023-04-12T12:21:28;480.93;;;441.07;;
22378;SDS011;11357;49.990;7.370;2023-04-12T12:23:55;202.00;;;188.53;;
22378;SDS011;11357;49.990;7.370;2023-04-12T12:26:23;39.40;;;37.40;;
22378;SDS011;11357;49.990;7.370;2023-04-12T12:28:50;185.33;;;173.70;;
22378;SDS011;11357;49.990;7.370;2023-04-12T12:31:19;90.07;;;84.57;;
22378;SDS011;11357;49.990;7.370;2023-04-12T12:33:46;91.70;;;86.33;;
22378;SDS011;11357;49.990;7.370;2023-04-12T12:36:11;331.07;;;306.70;;
22378;SDS011;11357;49.990;7.370;2023-04-12T12:38:40;623.23;;;560.43;;
22378;SDS011;11357;49.990;7.370;2023-04-12T12:41:19;277.23;;;257.60;;
22378;SDS011;11357;49.990;7.370;2023-04-12T12:43:49;96.17;;;91.00;;
22378;SDS011;11357;49.990;7.370;2023-04-12T12:46:16;237.57;;;221.77;;
22378;SDS011;11357;49.990;7.370;2023-04-12T12:48:43;164.03;;;154.00;;
22378;SDS011;11357;49.990;7.370;2023-04-12T12:51:10;58.07;;;55.00;;
22378;SDS011;11357;49.990;7.370;2023-04-12T12:53:37;10.53;;;10.03;;
22378;SDS011;11357;49.990;7.370;2023-04-12T12:56:04;15.93;;;15.20;;
22378;SDS011;11357;49.990;7.370;2023-04-12T12:58:30;50.80;;;46.33;;
22378;SDS011;11357;49.990;7.370;2023-04-12T13:00:56;29.50;;;28.03;;
22378;SDS011;11357;49.990;7.370;2023-04-12T13:03:21;123.67;;;116.33;;
22378;SDS011;11357;49.990;7.370;2023-04-12T13:05:47;119.40;;;112.30;;
22378;SDS011;11357;49.990;7.370;2023-04-12T13:08:14;97.70;;;92.13;;
22378;SDS011;11357;49.990;7.370;2023-04-12T13:10:40;30.73;;;29.23;;
22378;SDS011;11357;49.990;7.370;2023-04-12T13:13:05;2.90;;;2.77;;
22378;SDS011;11357;49.990;7.370;2023-04-12T13:15:31;28.67;;;27.30;;
22378;SDS011;11357;49.990;7.370;2023-04-12T13:17:57;19.57;;;18.57;;
22378;SDS011;11357;49.990;7.370;2023-04-12T13:20:22;20.57;;;19.50;;
22378;SDS011;11357;49.990;7.370;2023-04-12T13:22:49;56.57;;;53.57;;
22378;SDS011;11357;49.990;7.370;2023-04-12T13:25:16;6.87;;;6.60;;
22378;SDS011;11357;49.990;7.370;2023-04-12T13:27:43;25.20;;;23.83;;
22378;SDS011;11357;49.990;7.370;2023-04-12T13:30:09;32.50;;;30.97;;
22378;SDS011;11357;49.990;7.370;2023-04-12T13:32:35;15.27;;;14.53;;
22378;SDS011;11357;49.990;7.370;2023-04-12T13:35:02;147.13;;;138.60;;
22378;SDS011;11357;49.990;7.370;2023-04-12T13:37:28;2.60;;;2.40;;
22378;SDS011;11357;49.990;7.370;2023-04-12T13:39:54;8.93;;;8.53;;
22378;SDS011;11357;49.990;7.370;2023-04-12T13:42:19;62.83;;;59.10;;
22378;SDS011;11357;49.990;7.370;2023-04-12T13:44:47;61.50;;;58.43;;
22378;SDS011;11357;49.990;7.370;2023-04-12T13:47:13;43.43;;;41.37;;
22378;SDS011;11357;49.990;7.370;2023-04-12T13:49:40;70.00;;;66.40;;
22378;SDS011;11357;49.990;7.370;2023-04-12T13:52:06;32.60;;;30.97;;
22378;SDS011;11357;49.990;7.370;2023-04-12T13:54:31;98.33;;;93.17;;
22378;SDS011;11357;49.990;7.370;2023-04-12T13:56:57;23.57;;;22.20;;
22378;SDS011;11357;49.990;7.370;2023-04-12T13:59:23;338.17;;;312.53;;
22378;SDS011;11357;49.990;7.370;2023-04-12T14:01:50;124.47;;;116.10;;
22378;SDS011;11357;49.990;7.370;2023-04-12T14:04:16;183.47;;;168.47;;
22378;SDS011;11357;49.990;7.370;2023-04-12T14:06:42;157.23;;;147.70;;
22378;SDS011;11357;49.990;7.370;2023-04-12T14:09:09;52.93;;;50.10;;
22378;SDS011;11357;49.990;7.370;2023-04-12T14:11:51;23.40;;;22.10;;
22378;SDS011;11357;49.990;7.370;2023-04-12T14:14:21;64.60;;;58.50;;
22378;SDS011;11357;49.990;7.370;2023-04-12T14:16:48;228.70;;;213.10;;
22378;SDS011;11357;49.990;7.370;2023-04-12T14:19:16;253.17;;;235.27;;
22378;SDS011;11357;49.990;7.370;2023-04-12T14:21:41;110.40;;;103.17;;
22378;SDS011;11357;49.990;7.370;2023-04-12T14:24:07;319.20;;;293.17;;
22378;SDS011;11357;49.990;7.370;2023-04-12T14:26:33;376.70;;;348.03;;
22378;SDS011;11357;49.990;7.370;2023-04-12T14:28:58;282.33;;;262.43;;
22378;SDS011;11357;49.990;7.370;2023-04-12T14:31:24;534.93;;;483.80;;
22378;SDS011;11357;49.990;7.370;2023-04-12T14:33:50;250.00;;;232.80;;
22378;SDS011;11357;49.990;7.370;2023-04-12T14:36:17;268.13;;;250.03;;